Time,TemperatureF,DewpointF,PressureIn,WindDirection,WindDirectionDegrees,WindSpeedMPH,WindSpeedGustMPH,Humidity,HourlyPrecipIn,Conditions,Clouds,dailyrainin,SolarRadiationWatts/m^2,SoftwareType,DateUTC
2013-08-02 00:01:00,66.3,63.6,29.78,SW,214,10.0,14.0,91,0.00,,,0.00,0,WeatherCatV1.15B25,2013-08-02 05:01:00,
2013-08-02 00:06:00,66.5,63.8,29.82,WNW,293,4.0,5.0,91,0.00,,,0.00,0,WeatherCatV1.15B25,2013-08-02 05:06:00,
2013-08-02 00:11:00,66.5,63.5,29.81,NNW,340,3.0,3.0,90,0.00,,,0.00,0,WeatherCatV1.15B25,2013-08-02 05:11:00,
2013-08-02 00:16:00,66.3,63.6,29.83,SSW,211,3.0,4.0,91,0.00,,,0.00,0,WeatherCatV1.15B25,2013-08-02 05:16:00,
2013-08-02 00:21:00,66.2,63.5,29.83,SSE,167,10.0,11.0,91,0.00,,,0.00,0,WeatherCatV1.15B25,2013-08-02 05:21:00,
2013-08-02 00:26:00,66.1,63.4,29.80,South,188,6.0,12.0,91,0.00,,,0.00,0,WeatherCatV1.15B25,2013-08-02 05:26:00,
2013-08-02 00:31:00,66.0,63.3,29.81,SSW,192,5.0,9.0,91,0.00,,,0.00,0,WeatherCatV1.15B25,2013-08-02 05:31:00,
2013-08-02 00:36:00,66.0,63.3,29.82,South,190,6.0,11.0,91,0.00,,,0.00,0,WeatherCatV1.15B25,2013-08-02 05:36:00,
2013-08-02 00:41:00,66.0,63.3,29.82,WSW,252,5.0,15.0,91,0.00,,,0.00,0,WeatherCatV1.15B25,2013-08-02 05:41:00,
2013-08-02 00:46:00,65.9,63.2,29.84,South,182,2.0,4.0,91,0.00,,,0.00,0,WeatherCatV1.15B25,2013-08-02 05:46:00,
2013-08-02 00:51:00,65.8,63.1,29.84,WSW,252,6.0,6.0,91,0.00,,,0.00,0,WeatherCatV1.15B25,2013-08-02 05:51:00,
2013-08-02 00:56:00,65.8,63.1,29.84,South,171,3.0,7.0,91,0.00,,,0.01,0,WeatherCatV1.15B25,2013-08-02 05:56:00,
2013-08-02 01:01:00,65.7,63.3,29.82,SW,227,4.0,13.0,92,0.00,,,0.01,0,WeatherCatV1.15B25,2013-08-02 06:01:00,
2013-08-02 01:06:00,65.6,63.2,29.85,WSW,237,4.0,14.0,92,0.00,,,0.01,0,WeatherCatV1.15B25,2013-08-02 06:06:00,
2013-08-02 01:11:00,65.5,63.1,29.86,SSW,211,3.0,10.0,92,0.00,,,0.01,0,WeatherCatV1.15B25,2013-08-02 06:11:00,
2013-08-02 01:16:00,65.6,63.2,29.88,SSW,194,6.0,7.0,92,0.00,,,0.01,0,WeatherCatV1.15B25,2013-08-02 06:16:00,
2013-08-02 01:21:00,65.5,63.1,29.86,WSW,238,4.0,14.0,92,0.00,,,0.02,0,WeatherCatV1.15B25,2013-08-02 06:21:00,
2013-08-02 01:26:00,65.4,63.0,29.86,WSW,238,12.0,14.0,92,0.09,,,0.03,0,WeatherCatV1.15B25,2013-08-02 06:26:00,
2013-08-02 01:31:00,65.3,63.2,29.87,West,270,5.0,18.0,93,0.11,,,0.04,0,WeatherCatV1.15B25,2013-08-02 06:31:00,
2013-08-02 01:36:00,65.1,63.0,29.86,WSW,244,8.0,10.0,93,0.09,,,0.04,0,WeatherCatV1.15B25,2013-08-02 06:36:00,
2013-08-02 01:41:00,65.0,62.9,29.86,South,180,10.0,10.0,93,0.08,,,0.05,0,WeatherCatV1.15B25,2013-08-02 06:41:00,
2013-08-02 01:46:00,64.9,62.8,29.87,SSW,206,6.0,10.0,93,0.07,,,0.06,0,WeatherCatV1.15B25,2013-08-02 06:46:00,
2013-08-02 01:51:00,64.7,62.6,29.87,SW,214,3.0,8.0,93,0.14,,,0.07,0,WeatherCatV1.15B25,2013-08-02 06:51:00,
2013-08-02 01:56:00,64.6,62.5,29.88,West,264,4.0,13.0,93,0.27,,,0.09,0,WeatherCatV1.15B25,2013-08-02 06:56:00,
2013-08-02 02:01:00,64.4,62.3,29.88,WSW,253,4.0,11.0,93,0.26,,,0.11,0,WeatherCatV1.15B25,2013-08-02 07:01:00,
2013-08-02 02:06:00,64.3,62.2,29.88,SW,236,1.0,10.0,93,0.21,,,0.13,0,WeatherCatV1.15B25,2013-08-02 07:06:00,
2013-08-02 02:11:00,64.2,62.1,29.87,SSW,193,5.0,12.0,93,0.18,,,0.15,0,WeatherCatV1.15B25,2013-08-02 07:11:00,
2013-08-02 02:16:00,64.1,62.0,29.85,South,188,4.0,11.0,93,0.29,,,0.18,0,WeatherCatV1.15B25,2013-08-02 07:16:00,
2013-08-02 02:21:00,64.0,61.9,29.84,South,182,3.0,13.0,93,0.25,,,0.20,0,WeatherCatV1.15B25,2013-08-02 07:21:00,
2013-08-02 02:26:00,63.9,61.8,29.81,SE,130,3.0,9.0,93,0.25,,,0.22,0,WeatherCatV1.15B25,2013-08-02 07:26:00,
2013-08-02 02:31:00,63.9,61.8,29.76,SE,144,13.0,13.0,93,0.11,,,0.23,0,WeatherCatV1.15B25,2013-08-02 07:31:00,
2013-08-02 02:36:00,63.9,61.8,29.77,SSE,161,4.0,5.0,93,0.11,,,0.23,0,WeatherCatV1.15B25,2013-08-02 07:36:00,
2013-08-02 02:41:00,63.9,61.8,29.79,SSW,202,8.0,10.0,93,0.06,,,0.23,0,WeatherCatV1.15B25,2013-08-02 07:41:00,
2013-08-02 02:46:00,64.0,61.9,29.79,SE,126,7.0,15.0,93,0.04,,,0.23,0,WeatherCatV1.15B25,2013-08-02 07:46:00,
2013-08-02 02:51:00,64.0,61.9,29.78,South,176,6.0,11.0,93,0.00,,,0.23,0,WeatherCatV1.15B25,2013-08-02 07:51:00,
2013-08-02 02:56:00,64.1,62.0,29.79,SSE,157,4.0,14.0,93,0.00,,,0.23,0,WeatherCatV1.15B25,2013-08-02 07:56:00,
2013-08-02 03:01:00,64.2,62.1,29.80,East,96,7.0,14.0,93,0.00,,,0.23,0,WeatherCatV1.15B25,2013-08-02 08:01:00,
2013-08-02 03:06:00,64.3,62.2,29.81,South,169,4.0,12.0,93,0.00,,,0.23,0,WeatherCatV1.15B25,2013-08-02 08:06:00,
2013-08-02 03:11:00,64.3,62.2,29.81,SSE,166,0.0,14.0,93,0.00,,,0.23,0,WeatherCatV1.15B25,2013-08-02 08:11:00,
2013-08-02 03:16:00,64.4,62.3,29.81,ESE,112,0.0,1.0,93,0.00,,,0.23,0,WeatherCatV1.15B25,2013-08-02 08:16:00,
2013-08-02 03:21:00,64.5,62.4,29.81,SW,234,8.0,11.0,93,0.00,,,0.23,0,WeatherCatV1.15B25,2013-08-02 08:21:00,
2013-08-02 03:26:00,64.5,62.4,29.81,SE,140,5.0,11.0,93,0.00,,,0.23,0,WeatherCatV1.15B25,2013-08-02 08:26:00,
2013-08-02 03:31:00,64.5,62.4,29.80,SE,143,4.0,10.0,93,0.00,,,0.23,0,WeatherCatV1.15B25,2013-08-02 08:31:00,
2013-08-02 03:36:00,64.6,62.8,29.80,SSW,202,5.0,14.0,94,0.00,,,0.23,0,WeatherCatV1.15B25,2013-08-02 08:36:00,
2013-08-02 03:41:00,64.6,62.8,29.78,South,190,3.0,10.0,94,0.00,,,0.23,0,WeatherCatV1.15B25,2013-08-02 08:41:00,
2013-08-02 03:46:00,64.7,62.9,29.78,South,175,2.0,9.0,94,0.00,,,0.23,0,WeatherCatV1.15B25,2013-08-02 08:46:00,
2013-08-02 03:51:00,64.8,63.0,29.77,SSE,163,6.0,12.0,94,0.00,,,0.23,0,WeatherCatV1.15B25,2013-08-02 08:51:00,
2013-08-02 03:56:00,64.9,63.1,29.77,SW,220,9.0,13.0,94,0.00,,,0.23,0,WeatherCatV1.15B25,2013-08-02 08:56:00,
2013-08-02 04:01:00,64.9,63.1,29.77,SSE,167,10.0,14.0,94,0.00,,,0.23,0,WeatherCatV1.15B25,2013-08-02 09:01:00,
2013-08-02 04:06:00,65.0,63.2,29.75,SSW,200,4.0,16.0,94,0.00,,,0.23,0,WeatherCatV1.15B25,2013-08-02 09:06:00,
2013-08-02 04:11:00,65.1,63.0,29.75,South,181,7.0,16.0,93,0.00,,,0.23,0,WeatherCatV1.15B25,2013-08-02 09:11:00,
2013-08-02 04:16:00,65.4,63.6,29.75,SW,222,11.0,23.0,94,0.00,,,0.23,0,WeatherCatV1.15B25,2013-08-02 09:16:00,
2013-08-02 04:21:00,65.5,63.4,29.75,SSW,207,12.0,18.0,93,0.00,,,0.23,0,WeatherCatV1.15B25,2013-08-02 09:21:00,
2013-08-02 04:26:00,65.5,63.4,29.74,SSW,202,12.0,14.0,93,0.00,,,0.23,0,WeatherCatV1.15B25,2013-08-02 09:26:00,
2013-08-02 04:31:00,65.6,63.5,29.74,SSW,192,2.0,13.0,93,0.00,,,0.23,0,WeatherCatV1.15B25,2013-08-02 09:31:00,
2013-08-02 04:36:00,65.7,63.6,29.74,SE,132,5.0,13.0,93,0.00,,,0.23,0,WeatherCatV1.15B25,2013-08-02 09:36:00,
2013-08-02 04:41:00,65.8,63.7,29.74,SSW,198,2.0,16.0,93,0.00,,,0.23,0,WeatherCatV1.15B25,2013-08-02 09:41:00,
2013-08-02 04:46:00,65.9,63.8,29.74,SSE,148,16.0,16.0,93,0.00,,,0.23,0,WeatherCatV1.15B25,2013-08-02 09:46:00,
2013-08-02 04:51:00,66.0,63.9,29.74,South,182,10.0,15.0,93,0.00,,,0.23,0,WeatherCatV1.15B25,2013-08-02 09:51:00,
2013-08-02 04:56:00,66.1,64.0,29.74,SW,222,11.0,14.0,93,0.00,,,0.23,0,WeatherCatV1.15B25,2013-08-02 09:56:00,
2013-08-02 05:01:00,66.1,63.7,29.74,SSW,200,2.0,9.0,92,0.00,,,0.23,0,WeatherCatV1.15B25,2013-08-02 10:01:00,
2013-08-02 05:06:00,66.1,63.7,29.73,SE,139,9.0,15.0,92,0.00,,,0.23,0,WeatherCatV1.15B25,2013-08-02 10:06:00,
2013-08-02 05:11:00,66.1,63.7,29.73,South,186,5.0,13.0,92,0.00,,,0.23,0,WeatherCatV1.15B25,2013-08-02 10:11:00,
2013-08-02 05:16:00,66.1,63.7,29.74,SE,136,7.0,9.0,92,0.00,,,0.23,0,WeatherCatV1.15B25,2013-08-02 10:16:00,
2013-08-02 05:21:00,66.2,63.8,29.74,SSE,161,5.0,12.0,92,0.00,,,0.23,0,WeatherCatV1.15B25,2013-08-02 10:21:00,
2013-08-02 05:26:00,66.1,63.7,29.74,South,180,4.0,7.0,92,0.00,,,0.23,0,WeatherCatV1.15B25,2013-08-02 10:26:00,
2013-08-02 05:31:00,66.0,63.6,29.74,SSW,203,4.0,9.0,92,0.00,,,0.23,0,WeatherCatV1.15B25,2013-08-02 10:31:00,
2013-08-02 05:36:00,66.0,63.6,29.74,South,190,2.0,7.0,92,0.00,,,0.23,0,WeatherCatV1.15B25,2013-08-02 10:36:00,
2013-08-02 05:41:00,65.9,63.5,29.74,SE,146,1.0,6.0,92,0.00,,,0.23,0,WeatherCatV1.15B25,2013-08-02 10:41:00,
2013-08-02 05:46:00,65.8,63.4,29.75,SSW,198,2.0,9.0,92,0.00,,,0.23,0,WeatherCatV1.15B25,2013-08-02 10:46:00,
2013-08-02 05:51:00,65.8,63.4,29.74,South,190,9.0,9.0,92,0.00,,,0.23,0,WeatherCatV1.15B25,2013-08-02 10:51:00,
2013-08-02 05:56:00,65.7,63.3,29.74,SSE,164,7.0,7.0,92,0.00,,,0.23,0,WeatherCatV1.15B25,2013-08-02 10:56:00,
2013-08-02 06:01:00,65.7,63.3,29.75,South,186,0.0,6.0,92,0.00,,,0.23,0,WeatherCatV1.15B25,2013-08-02 11:01:00,
2013-08-02 06:06:00,65.5,63.1,29.75,South,175,3.0,5.0,92,0.00,,,0.23,0,WeatherCatV1.15B25,2013-08-02 11:06:00,
2013-08-02 06:11:00,65.4,63.0,29.75,South,173,0.0,5.0,92,0.00,,,0.23,0,WeatherCatV1.15B25,2013-08-02 11:11:00,
2013-08-02 06:16:00,65.4,63.0,29.75,South,173,3.0,6.0,92,0.00,,,0.23,0,WeatherCatV1.15B25,2013-08-02 11:16:00,
2013-08-02 06:21:00,65.3,62.9,29.75,South,173,3.0,5.0,92,0.00,,,0.23,0,WeatherCatV1.15B25,2013-08-02 11:21:00,
2013-08-02 06:26:00,65.2,62.8,29.76,South,173,0.0,3.0,92,0.00,,,0.23,0,WeatherCatV1.15B25,2013-08-02 11:26:00,
2013-08-02 06:31:00,65.1,62.7,29.76,South,173,0.0,0.0,92,0.00,,,0.23,0,WeatherCatV1.15B25,2013-08-02 11:31:00,
2013-08-02 06:36:00,65.0,62.6,29.76,South,173,0.0,3.0,92,0.00,,,0.23,7,WeatherCatV1.15B25,2013-08-02 11:36:00,
2013-08-02 06:41:00,65.0,62.6,29.77,South,173,0.0,2.0,92,0.00,,,0.23,9,WeatherCatV1.15B25,2013-08-02 11:41:00,
2013-08-02 06:46:00,64.8,62.4,29.76,South,173,0.0,5.0,92,0.00,,,0.23,12,WeatherCatV1.15B25,2013-08-02 11:46:00,
2013-08-02 06:51:00,64.8,62.4,29.76,SSW,209,0.0,4.0,92,0.00,,,0.23,16,WeatherCatV1.15B25,2013-08-02 11:51:00,
2013-08-02 06:56:00,64.8,62.4,29.77,SSW,209,5.0,5.0,92,0.00,,,0.23,19,WeatherCatV1.15B25,2013-08-02 11:56:00,
2013-08-02 07:01:00,64.9,62.2,29.77,SSW,209,1.0,3.0,91,0.00,,,0.23,30,WeatherCatV1.15B25,2013-08-02 12:01:00,
2013-08-02 07:06:00,65.0,62.3,29.76,South,191,0.0,7.0,91,0.00,,,0.23,46,WeatherCatV1.15B25,2013-08-02 12:06:00,
2013-08-02 07:11:00,65.2,62.5,29.76,SSW,192,0.0,2.0,91,0.00,,,0.23,62,WeatherCatV1.15B25,2013-08-02 12:11:00,
2013-08-02 07:16:00,65.3,62.6,29.76,SSW,192,3.0,4.0,91,0.00,,,0.23,72,WeatherCatV1.15B25,2013-08-02 12:16:00,
2013-08-02 07:21:00,65.5,63.1,29.76,SSW,192,0.0,2.0,92,0.00,,,0.23,83,WeatherCatV1.15B25,2013-08-02 12:21:00,
2013-08-02 07:26:00,65.7,63.0,29.77,SSW,192,0.0,0.0,91,0.00,,,0.23,90,WeatherCatV1.15B25,2013-08-02 12:26:00,
2013-08-02 07:31:00,65.8,62.8,29.77,SSW,192,1.0,6.0,90,0.00,,,0.23,88,WeatherCatV1.15B25,2013-08-02 12:31:00,
2013-08-02 07:36:00,66.1,63.1,29.77,SSW,192,0.0,6.0,90,0.00,,,0.23,90,WeatherCatV1.15B25,2013-08-02 12:36:00,
2013-08-02 07:41:00,66.2,62.9,29.78,SSW,192,0.0,3.0,89,0.00,,,0.23,100,WeatherCatV1.15B25,2013-08-02 12:41:00,
2013-08-02 07:46:00,66.3,63.0,29.78,SSW,192,0.0,2.0,89,0.00,,,0.23,111,WeatherCatV1.15B25,2013-08-02 12:46:00,
2013-08-02 07:51:00,66.4,62.7,29.78,SSW,192,3.0,4.0,88,0.00,,,0.23,123,WeatherCatV1.15B25,2013-08-02 12:51:00,
2013-08-02 07:56:00,66.5,62.8,29.78,SSW,192,0.0,0.0,88,0.00,,,0.23,130,WeatherCatV1.15B25,2013-08-02 12:56:00,
2013-08-02 08:01:00,66.7,63.0,29.78,SSW,192,0.0,3.0,88,0.00,,,0.23,225,WeatherCatV1.15B25,2013-08-02 13:01:00,
2013-08-02 08:06:00,67.1,63.1,29.78,SSW,192,2.0,2.0,87,0.00,,,0.23,190,WeatherCatV1.15B25,2013-08-02 13:06:00,
2013-08-02 08:11:00,67.4,63.4,29.78,SSW,192,0.0,1.0,87,0.00,,,0.23,188,WeatherCatV1.15B25,2013-08-02 13:11:00,
2013-08-02 08:16:00,67.7,63.0,29.78,SSW,192,0.0,2.0,85,0.00,,,0.23,167,WeatherCatV1.15B25,2013-08-02 13:16:00,
2013-08-02 08:21:00,67.9,63.2,29.78,SSW,192,0.0,1.0,85,0.00,,,0.23,267,WeatherCatV1.15B25,2013-08-02 13:21:00,
2013-08-02 08:26:00,68.5,63.5,29.78,South,178,0.0,1.0,84,0.00,,,0.23,299,WeatherCatV1.15B25,2013-08-02 13:26:00,
2013-08-02 08:31:00,68.8,63.4,29.78,South,178,0.0,2.0,83,0.00,,,0.23,306,WeatherCatV1.15B25,2013-08-02 13:31:00,
2013-08-02 08:36:00,69.8,64.0,29.79,South,178,0.0,2.0,82,0.00,,,0.23,322,WeatherCatV1.15B25,2013-08-02 13:36:00,
2013-08-02 08:41:00,70.6,64.5,29.79,South,178,0.0,0.0,81,0.00,,,0.23,336,WeatherCatV1.15B25,2013-08-02 13:41:00,
2013-08-02 08:46:00,71.3,64.4,29.80,South,178,0.0,0.0,79,0.00,,,0.23,346,WeatherCatV1.15B25,2013-08-02 13:46:00,
2013-08-02 08:51:00,71.9,65.0,29.80,South,178,0.0,0.0,79,0.00,,,0.23,369,WeatherCatV1.15B25,2013-08-02 13:51:00,
2013-08-02 08:56:00,72.1,64.8,29.80,South,178,0.0,1.0,78,0.00,,,0.23,383,WeatherCatV1.15B25,2013-08-02 13:56:00,
2013-08-02 09:01:00,72.3,64.3,29.80,South,178,0.0,2.0,76,0.00,,,0.23,401,WeatherCatV1.15B25,2013-08-02 14:01:00,
2013-08-02 09:06:00,72.4,65.1,29.80,South,178,0.0,1.0,78,0.00,,,0.23,422,WeatherCatV1.15B25,2013-08-02 14:06:00,
2013-08-02 09:11:00,72.5,64.9,29.79,South,178,0.0,0.0,77,0.00,,,0.23,438,WeatherCatV1.15B25,2013-08-02 14:11:00,
2013-08-02 09:16:00,72.6,65.0,29.80,South,178,0.0,1.0,77,0.00,,,0.23,455,WeatherCatV1.15B25,2013-08-02 14:16:00,
2013-08-02 09:21:00,73.0,64.6,29.79,South,178,1.0,2.0,75,0.00,,,0.23,476,WeatherCatV1.15B25,2013-08-02 14:21:00,
2013-08-02 09:26:00,72.8,64.4,29.79,South,178,2.0,2.0,75,0.00,,,0.23,494,WeatherCatV1.15B25,2013-08-02 14:26:00,
2013-08-02 09:31:00,73.1,65.4,29.79,South,178,0.0,4.0,77,0.00,,,0.23,526,WeatherCatV1.15B25,2013-08-02 14:31:00,
2013-08-02 09:36:00,73.7,65.3,29.79,South,178,0.0,0.0,75,0.00,,,0.23,568,WeatherCatV1.15B25,2013-08-02 14:36:00,
2013-08-02 09:41:00,73.6,64.4,29.79,SSE,152,4.0,5.0,73,0.00,,,0.23,468,WeatherCatV1.15B25,2013-08-02 14:41:00,
2013-08-02 09:46:00,73.5,65.5,29.79,SSE,153,0.0,2.0,76,0.00,,,0.23,499,WeatherCatV1.15B25,2013-08-02 14:46:00,
2013-08-02 09:51:00,73.7,65.3,29.79,SSE,152,0.0,0.0,75,0.00,,,0.23,585,WeatherCatV1.15B25,2013-08-02 14:51:00,
2013-08-02 09:56:00,73.7,65.3,29.79,SSE,152,0.0,4.0,75,0.00,,,0.23,629,WeatherCatV1.15B25,2013-08-02 14:56:00,
2013-08-02 10:01:00,73.9,65.5,29.80,SSE,153,4.0,5.0,75,0.00,,,0.23,659,WeatherCatV1.15B25,2013-08-02 15:01:00,
2013-08-02 10:06:00,73.7,64.5,29.80,SSE,152,0.0,0.0,73,0.00,,,0.23,320,WeatherCatV1.15B25,2013-08-02 15:06:00,
2013-08-02 10:11:00,73.9,65.5,29.80,SSE,152,0.0,0.0,75,0.00,,,0.23,700,WeatherCatV1.15B25,2013-08-02 15:11:00,
2013-08-02 10:16:00,74.7,66.2,29.80,SSE,153,2.0,2.0,75,0.00,,,0.23,503,WeatherCatV1.15B25,2013-08-02 15:16:00,
2013-08-02 10:21:00,75.0,66.1,29.81,SSE,153,0.0,0.0,74,0.00,,,0.23,622,WeatherCatV1.15B25,2013-08-02 15:21:00,
2013-08-02 10:26:00,75.3,66.0,29.81,SSE,152,0.0,0.0,73,0.00,,,0.23,220,WeatherCatV1.15B25,2013-08-02 15:26:00,
2013-08-02 10:31:00,74.9,65.2,29.81,SSE,153,0.0,1.0,72,0.00,,,0.23,710,WeatherCatV1.15B25,2013-08-02 15:31:00,
2013-08-02 10:36:00,74.7,64.7,29.81,SSE,153,0.0,1.0,71,0.00,,,0.23,552,WeatherCatV1.15B25,2013-08-02 15:36:00,
2013-08-02 10:41:00,74.7,64.7,29.81,SSE,152,0.0,0.0,71,0.00,,,0.23,441,WeatherCatV1.15B25,2013-08-02 15:41:00,
2013-08-02 10:46:00,75.0,65.7,29.81,SSE,153,4.0,4.0,73,0.00,,,0.23,397,WeatherCatV1.15B25,2013-08-02 15:46:00,
2013-08-02 10:51:00,75.0,65.7,29.81,SSE,152,0.0,0.0,73,0.00,,,0.23,742,WeatherCatV1.15B25,2013-08-02 15:51:00,
2013-08-02 10:56:00,75.6,65.9,29.82,SSE,153,0.0,1.0,72,0.00,,,0.23,714,WeatherCatV1.15B25,2013-08-02 15:56:00,
2013-08-02 11:01:00,76.3,66.6,29.82,SSE,153,0.0,0.0,72,0.00,,,0.23,283,WeatherCatV1.15B25,2013-08-02 16:01:00,
2013-08-02 11:06:00,76.4,66.3,29.82,SSE,153,0.0,4.0,71,0.00,,,0.23,645,WeatherCatV1.15B25,2013-08-02 16:06:00,
2013-08-02 11:11:00,76.2,66.1,29.82,SSE,153,0.0,3.0,71,0.00,,,0.23,587,WeatherCatV1.15B25,2013-08-02 16:11:00,
2013-08-02 11:16:00,75.9,66.2,29.82,SSE,152,4.0,4.0,72,0.00,,,0.23,628,WeatherCatV1.15B25,2013-08-02 16:16:00,
2013-08-02 11:21:00,76.0,66.3,29.82,SSE,152,2.0,3.0,72,0.00,,,0.23,881,WeatherCatV1.15B25,2013-08-02 16:21:00,
2013-08-02 11:26:00,76.7,66.6,29.82,SSE,152,2.0,4.0,71,0.00,,,0.23,872,WeatherCatV1.15B25,2013-08-02 16:26:00,
2013-08-02 11:31:00,76.5,66.0,29.82,SSE,147,5.0,6.0,70,0.00,,,0.23,733,WeatherCatV1.15B25,2013-08-02 16:31:00,
2013-08-02 11:36:00,76.7,66.6,29.82,SE,144,0.0,3.0,71,0.00,,,0.23,701,WeatherCatV1.15B25,2013-08-02 16:36:00,
2013-08-02 11:41:00,76.7,66.6,29.82,SE,144,1.0,3.0,71,0.00,,,0.23,962,WeatherCatV1.15B25,2013-08-02 16:41:00,
2013-08-02 11:46:00,76.1,66.0,29.82,SE,136,6.0,6.0,71,0.00,,,0.23,404,WeatherCatV1.15B25,2013-08-02 16:46:00,
2013-08-02 11:51:00,75.6,65.9,29.82,SE,136,1.0,3.0,72,0.00,,,0.23,726,WeatherCatV1.15B25,2013-08-02 16:51:00,
2013-08-02 11:56:00,76.2,66.9,29.82,SE,136,2.0,3.0,73,0.00,,,0.23,972,WeatherCatV1.15B25,2013-08-02 16:56:00,
2013-08-02 12:01:00,76.9,66.8,29.82,SE,132,2.0,3.0,71,0.00,,,0.23,782,WeatherCatV1.15B25,2013-08-02 17:01:00,
2013-08-02 12:06:00,77.7,67.5,29.82,SE,132,1.0,3.0,71,0.00,,,0.23,926,WeatherCatV1.15B25,2013-08-02 17:06:00,
2013-08-02 12:11:00,77.9,67.3,29.82,ESE,111,3.0,5.0,70,0.00,,,0.23,856,WeatherCatV1.15B25,2013-08-02 17:11:00,
2013-08-02 12:16:00,77.5,66.9,29.82,ESE,110,2.0,4.0,70,0.00,,,0.23,972,WeatherCatV1.15B25,2013-08-02 17:16:00,
2013-08-02 12:21:00,77.8,66.8,29.82,ESE,110,0.0,2.0,69,0.00,,,0.23,504,WeatherCatV1.15B25,2013-08-02 17:21:00,
2013-08-02 12:26:00,77.6,67.4,29.82,ESE,110,0.0,0.0,71,0.00,,,0.23,636,WeatherCatV1.15B25,2013-08-02 17:26:00,
2013-08-02 12:31:00,77.7,66.7,29.82,ESE,110,1.0,3.0,69,0.00,,,0.23,932,WeatherCatV1.15B25,2013-08-02 17:31:00,
2013-08-02 12:36:00,77.6,66.6,29.82,ESE,112,2.0,4.0,69,0.00,,,0.23,981,WeatherCatV1.15B25,2013-08-02 17:36:00,
2013-08-02 12:41:00,78.0,67.0,29.82,East,86,3.0,3.0,69,0.00,,,0.23,939,WeatherCatV1.15B25,2013-08-02 17:41:00,
2013-08-02 12:46:00,77.9,66.9,29.82,ESE,121,3.0,7.0,69,0.00,,,0.23,1005,WeatherCatV1.15B25,2013-08-02 17:46:00,
2013-08-02 12:51:00,78.0,67.8,29.82,ESE,121,5.0,5.0,71,0.00,,,0.23,977,WeatherCatV1.15B25,2013-08-02 17:51:00,
2013-08-02 12:56:00,78.1,67.5,29.82,East,98,1.0,3.0,70,0.00,,,0.23,1035,WeatherCatV1.15B25,2013-08-02 17:56:00,
2013-08-02 13:01:00,78.7,68.1,29.82,East,96,3.0,4.0,70,0.00,,,0.23,1055,WeatherCatV1.15B25,2013-08-02 18:01:00,
2013-08-02 13:06:00,78.2,67.2,29.82,ESE,103,0.0,7.0,69,0.00,,,0.23,1016,WeatherCatV1.15B25,2013-08-02 18:06:00,
2013-08-02 13:11:00,78.7,68.1,29.82,East,101,0.0,4.0,70,0.00,,,0.23,1158,WeatherCatV1.15B25,2013-08-02 18:11:00,
2013-08-02 13:16:00,78.4,66.9,29.82,ESE,105,0.0,5.0,68,0.00,,,0.23,464,WeatherCatV1.15B25,2013-08-02 18:16:00,
2013-08-02 13:21:00,78.4,67.4,29.82,East,84,0.0,3.0,69,0.00,,,0.23,366,WeatherCatV1.15B25,2013-08-02 18:21:00,
2013-08-02 13:26:00,77.7,67.5,29.82,East,89,3.0,6.0,71,0.00,,,0.23,541,WeatherCatV1.15B25,2013-08-02 18:26:00,
2013-08-02 13:31:00,77.7,67.5,29.82,East,90,2.0,3.0,71,0.00,,,0.23,448,WeatherCatV1.15B25,2013-08-02 18:31:00,
2013-08-02 13:36:00,77.8,67.6,29.82,East,87,2.0,5.0,71,0.00,,,0.23,1048,WeatherCatV1.15B25,2013-08-02 18:36:00,
2013-08-02 13:41:00,78.1,67.5,29.81,ESE,121,5.0,12.0,70,0.00,,,0.23,1013,WeatherCatV1.15B25,2013-08-02 18:41:00,
2013-08-02 13:46:00,78.3,67.7,29.81,ESE,117,1.0,8.0,70,0.00,,,0.23,956,WeatherCatV1.15B25,2013-08-02 18:46:00,
2013-08-02 13:51:00,78.7,68.5,29.81,ESE,117,3.0,3.0,71,0.00,,,0.23,974,WeatherCatV1.15B25,2013-08-02 18:51:00,
2013-08-02 13:56:00,78.7,67.2,29.81,NE,46,3.0,4.0,68,0.00,,,0.23,953,WeatherCatV1.15B25,2013-08-02 18:56:00,
2013-08-02 14:01:00,79.3,68.2,29.81,NNE,19,3.0,6.0,69,0.00,,,0.23,1099,WeatherCatV1.15B25,2013-08-02 19:01:00,
2013-08-02 14:06:00,78.9,67.4,29.81,East,90,2.0,8.0,68,0.00,,,0.23,1102,WeatherCatV1.15B25,2013-08-02 19:06:00,
2013-08-02 14:11:00,79.1,67.2,29.81,ESE,114,0.0,10.0,67,0.00,,,0.23,991,WeatherCatV1.15B25,2013-08-02 19:11:00,
2013-08-02 14:16:00,79.0,67.1,29.81,NE,49,2.0,6.0,67,0.00,,,0.23,965,WeatherCatV1.15B25,2013-08-02 19:16:00,
2013-08-02 14:21:00,78.7,67.2,29.81,ESE,115,0.0,2.0,68,0.00,,,0.23,981,WeatherCatV1.15B25,2013-08-02 19:21:00,
2013-08-02 14:26:00,79.2,67.3,29.81,ESE,111,2.0,2.0,67,0.00,,,0.23,962,WeatherCatV1.15B25,2013-08-02 19:26:00,
2013-08-02 14:31:00,79.4,67.0,29.81,ESE,119,2.0,5.0,66,0.00,,,0.23,963,WeatherCatV1.15B25,2013-08-02 19:31:00,
2013-08-02 14:36:00,79.2,67.3,29.81,ESE,122,0.0,3.0,67,0.00,,,0.23,969,WeatherCatV1.15B25,2013-08-02 19:36:00,
2013-08-02 14:41:00,79.9,67.9,29.81,ESE,121,3.0,10.0,67,0.00,,,0.23,1079,WeatherCatV1.15B25,2013-08-02 19:41:00,
2013-08-02 14:46:00,79.4,67.9,29.81,ESE,121,0.0,4.0,68,0.00,,,0.23,1037,WeatherCatV1.15B25,2013-08-02 19:46:00,
2013-08-02 14:51:00,79.5,67.6,29.81,ESE,115,3.0,11.0,67,0.00,,,0.23,1044,WeatherCatV1.15B25,2013-08-02 19:51:00,
2013-08-02 14:56:00,79.4,67.5,29.81,SE,126,5.0,9.0,67,0.00,,,0.23,1005,WeatherCatV1.15B25,2013-08-02 19:56:00,
2013-08-02 15:01:00,80.0,69.3,29.81,SE,129,3.0,3.0,70,0.00,,,0.23,1123,WeatherCatV1.15B25,2013-08-02 20:01:00,
2013-08-02 15:06:00,80.5,68.1,29.81,ESE,117,3.0,11.0,66,0.00,,,0.23,352,WeatherCatV1.15B25,2013-08-02 20:06:00,
2013-08-02 15:11:00,79.8,68.7,29.81,SSE,167,6.0,6.0,69,0.00,,,0.23,1093,WeatherCatV1.15B25,2013-08-02 20:11:00,
2013-08-02 15:16:00,80.3,67.9,29.81,ESE,113,1.0,7.0,66,0.00,,,0.23,1028,WeatherCatV1.15B25,2013-08-02 20:16:00,
2013-08-02 15:21:00,80.9,69.3,29.81,ESE,123,0.0,4.0,68,0.00,,,0.23,1030,WeatherCatV1.15B25,2013-08-02 20:21:00,
2013-08-02 15:26:00,80.6,68.6,29.81,ESE,122,3.0,4.0,67,0.00,,,0.23,1016,WeatherCatV1.15B25,2013-08-02 20:26:00,
2013-08-02 15:31:00,80.2,67.8,29.82,ESE,116,2.0,4.0,66,0.00,,,0.23,446,WeatherCatV1.15B25,2013-08-02 20:31:00,
2013-08-02 15:36:00,80.5,68.5,29.81,ESE,115,3.0,3.0,67,0.00,,,0.23,1028,WeatherCatV1.15B25,2013-08-02 20:36:00,
2013-08-02 15:41:00,80.0,68.5,29.82,ESE,116,1.0,1.0,68,0.00,,,0.23,1046,WeatherCatV1.15B25,2013-08-02 20:41:00,
2013-08-02 15:46:00,80.0,68.5,29.82,ESE,113,7.0,7.0,68,0.00,,,0.23,1060,WeatherCatV1.15B25,2013-08-02 20:46:00,
2013-08-02 15:51:00,79.7,67.7,29.82,ESE,113,1.0,5.0,67,0.00,,,0.23,239,WeatherCatV1.15B25,2013-08-02 20:51:00,
2013-08-02 15:56:00,79.5,68.4,29.82,ESE,111,0.0,2.0,69,0.00,,,0.23,325,WeatherCatV1.15B25,2013-08-02 20:56:00,
2013-08-02 16:01:00,79.9,68.8,29.82,ESE,110,0.0,2.0,69,0.00,,,0.23,207,WeatherCatV1.15B25,2013-08-02 21:01:00,
2013-08-02 16:06:00,79.7,67.7,29.82,ESE,109,2.0,3.0,67,0.00,,,0.23,251,WeatherCatV1.15B25,2013-08-02 21:06:00,
2013-08-02 16:11:00,79.5,67.6,29.82,ESE,115,3.0,9.0,67,0.00,,,0.23,689,WeatherCatV1.15B25,2013-08-02 21:11:00,
2013-08-02 16:16:00,80.0,68.0,29.83,ESE,116,0.0,4.0,67,0.00,,,0.23,260,WeatherCatV1.15B25,2013-08-02 21:16:00,
2013-08-02 16:21:00,79.8,67.0,29.83,ESE,116,4.0,4.0,65,0.00,,,0.23,271,WeatherCatV1.15B25,2013-08-02 21:21:00,
2013-08-02 16:26:00,79.7,68.2,29.83,ESE,115,4.0,5.0,68,0.00,,,0.23,907,WeatherCatV1.15B25,2013-08-02 21:26:00,
2013-08-02 16:31:00,80.0,68.0,29.82,ESE,115,1.0,3.0,67,0.00,,,0.23,343,WeatherCatV1.15B25,2013-08-02 21:31:00,
2013-08-02 16:36:00,80.0,68.0,29.83,SE,144,4.0,13.0,67,0.00,,,0.23,316,WeatherCatV1.15B25,2013-08-02 21:36:00,
2013-08-02 16:41:00,79.3,68.6,29.82,ESE,121,2.0,3.0,70,0.00,,,0.23,211,WeatherCatV1.15B25,2013-08-02 21:41:00,
2013-08-02 16:46:00,78.7,67.2,29.83,ESE,122,1.0,4.0,68,0.00,,,0.23,151,WeatherCatV1.15B25,2013-08-02 21:46:00,
2013-08-02 16:51:00,78.7,68.1,29.82,ESE,118,1.0,4.0,70,0.00,,,0.23,715,WeatherCatV1.15B25,2013-08-02 21:51:00,
2013-08-02 16:56:00,79.7,68.6,29.82,ESE,118,6.0,7.0,69,0.00,,,0.23,731,WeatherCatV1.15B25,2013-08-02 21:56:00,
2013-08-02 17:01:00,80.1,68.1,29.82,ESE,103,2.0,11.0,67,0.00,,,0.23,816,WeatherCatV1.15B25,2013-08-02 22:01:00,
2013-08-02 17:06:00,80.2,69.1,29.82,East,98,0.0,2.0,69,0.00,,,0.23,258,WeatherCatV1.15B25,2013-08-02 22:06:00,
2013-08-02 17:11:00,79.9,68.4,29.82,East,98,0.0,2.0,68,0.00,,,0.23,279,WeatherCatV1.15B25,2013-08-02 22:11:00,
2013-08-02 17:16:00,79.5,68.0,29.82,East,82,1.0,5.0,68,0.00,,,0.23,225,WeatherCatV1.15B25,2013-08-02 22:16:00,
2013-08-02 17:21:00,79.2,67.7,29.83,East,86,0.0,7.0,68,0.00,,,0.23,185,WeatherCatV1.15B25,2013-08-02 22:21:00,
2013-08-02 17:26:00,78.9,68.3,29.83,East,86,3.0,3.0,70,0.00,,,0.23,260,WeatherCatV1.15B25,2013-08-02 22:26:00,
2013-08-02 17:31:00,78.7,67.7,29.83,East,87,0.0,3.0,69,0.00,,,0.23,288,WeatherCatV1.15B25,2013-08-02 22:31:00,
2013-08-02 17:36:00,78.8,68.2,29.83,East,88,1.0,2.0,70,0.00,,,0.23,301,WeatherCatV1.15B25,2013-08-02 22:36:00,
2013-08-02 17:41:00,78.7,68.1,29.83,ENE,62,2.0,6.0,70,0.00,,,0.23,318,WeatherCatV1.15B25,2013-08-02 22:41:00,
2013-08-02 17:46:00,78.7,68.5,29.83,NE,53,0.0,4.0,71,0.00,,,0.23,267,WeatherCatV1.15B25,2013-08-02 22:46:00,
2013-08-02 17:51:00,78.8,68.6,29.82,NE,55,0.0,4.0,71,0.00,,,0.23,299,WeatherCatV1.15B25,2013-08-02 22:51:00,
2013-08-02 17:56:00,79.1,68.9,29.82,ENE,74,0.0,7.0,71,0.00,,,0.23,617,WeatherCatV1.15B25,2013-08-02 22:56:00,
2013-08-02 18:01:00,79.3,69.1,29.82,East,82,2.0,8.0,71,0.00,,,0.23,469,WeatherCatV1.15B25,2013-08-02 23:01:00,
2013-08-02 18:06:00,79.3,69.1,29.82,East,91,3.0,3.0,71,0.00,,,0.23,519,WeatherCatV1.15B25,2013-08-02 23:06:00,
2013-08-02 18:11:00,79.3,68.6,29.82,East,94,2.0,6.0,70,0.00,,,0.23,485,WeatherCatV1.15B25,2013-08-02 23:11:00,
2013-08-02 18:16:00,78.9,68.7,29.82,East,82,0.0,3.0,71,0.00,,,0.23,313,WeatherCatV1.15B25,2013-08-02 23:16:00,
2013-08-02 18:21:00,78.7,68.9,29.82,East,90,2.0,7.0,72,0.00,,,0.23,202,WeatherCatV1.15B25,2013-08-02 23:21:00,
2013-08-02 18:26:00,78.5,68.7,29.81,East,94,5.0,5.0,72,0.00,,,0.23,206,WeatherCatV1.15B25,2013-08-02 23:26:00,
2013-08-02 18:32:00,78.7,69.3,29.81,ESE,113,4.0,7.0,73,0.00,,,0.23,292,WeatherCatV1.15B25,2013-08-02 23:32:00,
2013-08-02 18:37:00,78.4,68.6,29.82,ESE,113,0.0,4.0,72,0.00,,,0.23,104,WeatherCatV1.15B25,2013-08-02 23:37:00,
2013-08-02 18:42:00,78.3,68.9,29.82,ESE,113,0.0,3.0,73,0.00,,,0.23,332,WeatherCatV1.15B25,2013-08-02 23:42:00,
2013-08-02 18:47:00,78.8,69.8,29.81,ESE,113,1.0,1.0,74,0.00,,,0.23,362,WeatherCatV1.15B25,2013-08-02 23:47:00,
2013-08-02 18:52:00,79.2,69.0,29.82,ESE,113,0.0,8.0,71,0.00,,,0.23,348,WeatherCatV1.15B25,2013-08-02 23:52:00,
2013-08-02 18:57:00,78.8,68.6,29.82,ESE,115,0.0,3.0,71,0.00,,,0.23,104,WeatherCatV1.15B25,2013-08-02 23:57:00,
2013-08-02 19:02:00,78.3,68.5,29.82,ESE,115,2.0,5.0,72,0.00,,,0.23,88,WeatherCatV1.15B25,2013-08-03 00:02:00,
2013-08-02 19:07:00,77.8,68.0,29.82,ESE,115,3.0,6.0,72,0.00,,,0.23,69,WeatherCatV1.15B25,2013-08-03 00:07:00,
2013-08-02 19:12:00,77.7,67.9,29.82,ESE,113,0.0,6.0,72,0.00,,,0.23,230,WeatherCatV1.15B25,2013-08-03 00:12:00,
2013-08-02 19:17:00,78.0,67.8,29.83,ESE,114,0.0,6.0,71,0.00,,,0.23,213,WeatherCatV1.15B25,2013-08-03 00:17:00,
2013-08-02 19:22:00,78.3,68.5,29.83,ESE,114,0.0,5.0,72,0.00,,,0.23,190,WeatherCatV1.15B25,2013-08-03 00:22:00,
2013-08-02 19:27:00,78.2,68.8,29.83,ESE,114,1.0,1.0,73,0.00,,,0.23,98,WeatherCatV1.15B25,2013-08-03 00:27:00,
2013-08-02 19:32:00,77.9,68.9,29.83,ESE,114,0.0,1.0,74,0.00,,,0.23,72,WeatherCatV1.15B25,2013-08-03 00:32:00,
2013-08-02 19:37:00,77.6,68.2,29.83,ESE,114,1.0,7.0,73,0.00,,,0.23,54,WeatherCatV1.15B25,2013-08-03 00:37:00,
2013-08-02 19:42:00,77.3,68.0,29.83,ESE,114,0.0,6.0,73,0.00,,,0.23,76,WeatherCatV1.15B25,2013-08-03 00:42:00,
2013-08-02 19:47:00,77.2,68.3,29.83,ESE,114,1.0,2.0,74,0.00,,,0.23,69,WeatherCatV1.15B25,2013-08-03 00:47:00,
2013-08-02 19:52:00,77.1,68.2,29.84,ESE,113,0.0,6.0,74,0.00,,,0.23,46,WeatherCatV1.15B25,2013-08-03 00:52:00,
2013-08-02 19:57:00,77.0,68.4,29.84,ESE,113,2.0,2.0,75,0.00,,,0.23,46,WeatherCatV1.15B25,2013-08-03 00:57:00,
2013-08-02 20:02:00,76.9,68.4,29.84,ESE,113,1.0,2.0,75,0.00,,,0.23,42,WeatherCatV1.15B25,2013-08-03 01:02:00,
2013-08-02 20:07:00,76.6,68.5,29.84,ESE,113,0.0,1.0,76,0.00,,,0.23,37,WeatherCatV1.15B25,2013-08-03 01:07:00,
2013-08-02 20:12:00,76.4,68.6,29.84,ESE,113,0.0,1.0,77,0.00,,,0.23,30,WeatherCatV1.15B25,2013-08-03 01:12:00,
2013-08-02 20:17:00,76.2,68.4,29.84,ESE,113,0.0,3.0,77,0.00,,,0.23,26,WeatherCatV1.15B25,2013-08-03 01:17:00,
2013-08-02 20:22:00,75.9,68.5,29.85,ESE,113,2.0,4.0,78,0.00,,,0.23,23,WeatherCatV1.15B25,2013-08-03 01:22:00,
2013-08-02 20:27:00,75.7,68.3,29.84,ESE,113,0.0,4.0,78,0.00,,,0.23,25,WeatherCatV1.15B25,2013-08-03 01:27:00,
2013-08-02 20:32:00,75.6,68.6,29.85,ESE,113,0.0,2.0,79,0.00,,,0.23,16,WeatherCatV1.15B25,2013-08-03 01:32:00,
2013-08-02 20:37:00,75.3,68.3,29.85,ESE,114,0.0,5.0,79,0.00,,,0.23,11,WeatherCatV1.15B25,2013-08-03 01:37:00,
2013-08-02 20:42:00,75.2,68.6,29.85,ESE,114,0.0,2.0,80,0.00,,,0.23,9,WeatherCatV1.15B25,2013-08-03 01:42:00,
2013-08-02 20:47:00,75.0,68.4,29.85,ESE,114,0.0,2.0,80,0.00,,,0.23,5,WeatherCatV1.15B25,2013-08-03 01:47:00,
2013-08-02 20:52:00,74.9,68.3,29.85,ESE,114,0.0,4.0,80,0.00,,,0.23,0,WeatherCatV1.15B25,2013-08-03 01:52:00,
2013-08-02 20:57:00,74.8,68.6,29.86,ESE,114,0.0,0.0,81,0.00,,,0.23,0,WeatherCatV1.15B25,2013-08-03 01:57:00,
2013-08-02 21:02:00,74.6,68.4,29.86,ESE,114,1.0,1.0,81,0.00,,,0.23,0,WeatherCatV1.15B25,2013-08-03 02:02:00,
2013-08-02 21:07:00,74.5,68.3,29.86,ESE,114,0.0,1.0,81,0.00,,,0.23,0,WeatherCatV1.15B25,2013-08-03 02:07:00,
2013-08-02 21:12:00,74.4,68.5,29.86,ESE,114,0.0,0.0,82,0.00,,,0.23,0,WeatherCatV1.15B25,2013-08-03 02:12:00,
2013-08-02 21:17:00,74.2,68.3,29.87,ESE,114,0.0,0.0,82,0.00,,,0.23,0,WeatherCatV1.15B25,2013-08-03 02:17:00,
2013-08-02 21:22:00,74.1,68.2,29.87,ESE,114,0.0,1.0,82,0.00,,,0.23,0,WeatherCatV1.15B25,2013-08-03 02:22:00,
2013-08-02 21:27:00,73.9,68.4,29.87,ESE,114,0.0,0.0,83,0.00,,,0.23,0,WeatherCatV1.15B25,2013-08-03 02:27:00,
2013-08-02 21:32:00,73.8,68.3,29.87,ESE,114,0.0,0.0,83,0.00,,,0.23,0,WeatherCatV1.15B25,2013-08-03 02:32:00,
2013-08-02 21:37:00,73.7,68.2,29.87,ESE,114,0.0,0.0,83,0.00,,,0.23,0,WeatherCatV1.15B25,2013-08-03 02:37:00,
2013-08-02 21:42:00,73.6,68.1,29.88,ESE,114,0.0,2.0,83,0.00,,,0.23,0,WeatherCatV1.15B25,2013-08-03 02:42:00,
2013-08-02 21:47:00,73.5,68.0,29.87,ESE,114,0.0,3.0,83,0.00,,,0.23,0,WeatherCatV1.15B25,2013-08-03 02:47:00,
2013-08-02 21:52:00,73.3,67.8,29.88,ESE,114,0.0,0.0,83,0.00,,,0.23,0,WeatherCatV1.15B25,2013-08-03 02:52:00,
2013-08-02 21:57:00,73.2,67.7,29.88,ESE,114,0.0,1.0,83,0.00,,,0.23,0,WeatherCatV1.15B25,2013-08-03 02:57:00,
2013-08-02 22:02:00,73.1,67.6,29.88,ESE,113,0.0,2.0,83,0.00,,,0.23,0,WeatherCatV1.15B25,2013-08-03 03:02:00,
2013-08-02 22:07:00,73.0,67.5,29.88,ESE,114,0.0,0.0,83,0.00,,,0.23,0,WeatherCatV1.15B25,2013-08-03 03:07:00,
2013-08-02 22:12:00,72.8,67.3,29.88,ESE,114,0.0,4.0,83,0.00,,,0.23,0,WeatherCatV1.15B25,2013-08-03 03:12:00,
2013-08-02 22:17:00,72.7,67.6,29.88,ESE,114,0.0,1.0,84,0.00,,,0.23,0,WeatherCatV1.15B25,2013-08-03 03:17:00,
2013-08-02 22:22:00,72.6,67.5,29.89,ESE,113,0.0,0.0,84,0.00,,,0.23,0,WeatherCatV1.15B25,2013-08-03 03:22:00,
2013-08-02 22:27:00,72.5,67.4,29.89,ESE,113,0.0,1.0,84,0.00,,,0.23,0,WeatherCatV1.15B25,2013-08-03 03:27:00,
2013-08-02 22:32:00,72.4,67.3,29.89,ESE,113,1.0,3.0,84,0.00,,,0.23,0,WeatherCatV1.15B25,2013-08-03 03:32:00,
2013-08-02 22:37:00,72.3,67.5,29.89,ESE,113,0.0,0.0,85,0.00,,,0.23,0,WeatherCatV1.15B25,2013-08-03 03:37:00,
2013-08-02 22:42:00,72.2,67.4,29.89,ESE,113,0.0,0.0,85,0.00,,,0.23,0,WeatherCatV1.15B25,2013-08-03 03:42:00,
2013-08-02 22:47:00,72.1,67.3,29.89,ESE,113,1.0,1.0,85,0.00,,,0.23,0,WeatherCatV1.15B25,2013-08-03 03:47:00,
2013-08-02 22:52:00,72.0,67.2,29.89,ESE,113,0.0,2.0,85,0.00,,,0.23,0,WeatherCatV1.15B25,2013-08-03 03:52:00,
2013-08-02 22:57:00,71.9,67.1,29.89,ESE,113,2.0,2.0,85,0.00,,,0.23,0,WeatherCatV1.15B25,2013-08-03 03:57:00,
2013-08-02 23:00:00,71.9,67.1,29.89,ESE,113,0.0,2.0,85,0.00,,,0.23,0,WeatherCatV1.15B25,2013-08-03 04:00:00,
2013-08-02 23:01:00,71.9,67.1,29.89,ESE,113,0.0,2.0,85,0.00,,,0.23,0,WeatherCatV1.15B25,2013-08-03 04:01:00,
2013-08-02 23:06:00,71.7,66.9,29.89,ESE,113,0.0,1.0,85,0.00,,,0.23,0,WeatherCatV1.15B25,2013-08-03 04:06:00,
2013-08-02 23:11:00,71.6,66.8,29.90,ESE,111,3.0,3.0,85,0.00,,,0.23,0,WeatherCatV1.15B25,2013-08-03 04:11:00,
2013-08-02 23:16:00,71.5,67.1,29.90,ESE,111,0.0,0.0,86,0.00,,,0.23,0,WeatherCatV1.15B25,2013-08-03 04:16:00,
2013-08-02 23:21:00,71.5,67.1,29.90,ESE,111,0.0,2.0,86,0.00,,,0.23,0,WeatherCatV1.15B25,2013-08-03 04:21:00,
2013-08-02 23:26:00,71.3,66.9,29.90,ESE,111,0.0,2.0,86,0.00,,,0.23,0,WeatherCatV1.15B25,2013-08-03 04:26:00,
2013-08-02 23:31:00,71.3,67.2,29.90,ESE,111,0.0,3.0,87,0.00,,,0.23,0,WeatherCatV1.15B25,2013-08-03 04:31:00,
2013-08-02 23:36:00,71.0,66.9,29.91,ESE,111,2.0,4.0,87,0.00,,,0.23,0,WeatherCatV1.15B25,2013-08-03 04:36:00,
2013-08-02 23:41:00,71.0,67.3,29.92,ESE,111,2.0,2.0,88,0.00,,,0.23,0,WeatherCatV1.15B25,2013-08-03 04:41:00,
2013-08-02 23:46:00,70.9,67.2,29.91,ESE,111,0.0,4.0,88,0.00,,,0.23,0,WeatherCatV1.15B25,2013-08-03 04:46:00,
2013-08-02 23:51:00,70.7,67.3,29.92,ESE,111,3.0,7.0,89,0.00,,,0.23,0,WeatherCatV1.15B25,2013-08-03 04:51:00,
2013-08-02 23:56:00,70.3,66.9,29.92,ESE,113,3.0,5.0,89,0.00,,,0.23,0,WeatherCatV1.15B25,2013-08-03 04:56:00,